Time,TemperatureF,DewpointF,PressureIn,WindDirection,WindDirectionDegrees,WindSpeedMPH,WindSpeedGustMPH,Humidity,HourlyPrecipIn,Conditions,Clouds,dailyrainin,SoftwareType,DateUTC
2013-02-28 00:05:00,55.5,49.4,29.92,WNW,294,1.0,8.0,80,0.00,CLR,,0.00,WeatherDisplay:10.37,2013-02-28 05:05:00,
2013-02-28 00:10:00,55.4,49.3,29.93,NW,305,2.0,5.0,80,0.00,CLR,,0.00,WeatherDisplay:10.37,2013-02-28 05:10:00,
2013-02-28 00:15:00,55.3,49.2,29.92,NW,315,1.0,7.0,80,0.00,CLR,,0.00,WeatherDisplay:10.37,2013-02-28 05:15:00,
2013-02-28 00:20:00,55.1,49.1,29.93,NW,314,2.0,6.0,80,0.00,CLR,,0.00,WeatherDisplay:10.37,2013-02-28 05:20:00,
2013-02-28 00:25:00,55.0,49.3,29.92,NW,323,0.0,4.0,81,0.00,CLR,,0.00,WeatherDisplay:10.37,2013-02-28 05:25:00,
2013-02-28 00:30:00,54.9,49.2,29.92,NW,310,0.0,5.0,81,0.00,CLR,,0.00,WeatherDisplay:10.37,2013-02-28 05:30:00,
2013-02-28 00:35:00,54.8,49.1,29.92,WNW,302,0.0,5.0,81,0.00,CLR,,0.00,WeatherDisplay:10.37,2013-02-28 05:35:00,
2013-02-28 00:45:00,54.6,48.9,29.92,NW,309,0.0,3.0,81,0.00,CLR,,0.00,WeatherDisplay:10.37,2013-02-28 05:45:00,
2013-02-28 00:50:00,54.5,48.8,29.92,WNW,302,0.0,4.0,81,0.00,CLR,,0.00,WeatherDisplay:10.37,2013-02-28 05:50:00,
2013-02-28 00:55:00,54.3,48.9,29.92,WNW,294,0.0,1.0,82,0.00,CLR,,0.00,WeatherDisplay:10.37,2013-02-28 05:55:00,
2013-02-28 01:00:00,54.1,48.7,29.92,WNW,292,0.0,3.0,82,0.00,CLR,,0.00,WeatherDisplay:10.37,2013-02-28 06:00:00,
2013-02-28 01:05:00,54.0,49.0,29.92,WNW,292,0.0,3.0,83,0.00,CLR,,0.00,WeatherDisplay:10.37,2013-02-28 06:05:00,
2013-02-28 01:10:00,53.8,48.8,29.92,WNW,292,0.0,2.0,83,0.00,CLR,,0.00,WeatherDisplay:10.37,2013-02-28 06:10:00,
2013-02-28 01:15:00,53.7,48.7,29.91,WNW,292,0.0,2.0,83,0.00,CLR,,0.00,WeatherDisplay:10.37,2013-02-28 06:15:00,
2013-02-28 01:20:00,53.6,48.6,29.92,WNW,292,0.0,1.0,83,0.00,CLR,,0.00,WeatherDisplay:10.37,2013-02-28 06:20:00,
2013-02-28 01:25:00,53.4,48.4,29.92,WNW,292,0.0,1.0,83,0.00,CLR,,0.00,WeatherDisplay:10.37,2013-02-28 06:25:00,
2013-02-28 01:30:00,53.3,48.6,29.92,WNW,292,0.0,1.0,84,0.00,CLR,,0.00,WeatherDisplay:10.37,2013-02-28 06:30:00,
2013-02-28 01:35:00,53.1,48.4,29.92,WNW,292,0.0,2.0,84,0.00,CLR,,0.00,WeatherDisplay:10.37,2013-02-28 06:35:00,
2013-02-28 01:40:00,52.9,48.5,29.92,WNW,292,0.0,2.0,85,0.00,CLR,,0.00,WeatherDisplay:10.37,2013-02-28 06:40:00,
2013-02-28 01:45:00,52.8,48.4,29.92,WNW,298,1.0,4.0,85,0.00,CLR,,0.00,WeatherDisplay:10.37,2013-02-28 06:45:00,
2013-02-28 01:50:00,52.7,48.4,29.91,NW,304,0.0,4.0,85,0.00,CLR,,0.00,WeatherDisplay:10.37,2013-02-28 06:50:00,
2013-02-28 01:55:00,52.8,48.5,29.92,NW,307,1.0,4.0,85,0.00,CLR,,0.00,WeatherDisplay:10.37,2013-02-28 06:55:00,
2013-02-28 02:00:00,53.0,48.6,29.92,NW,305,0.0,5.0,85,0.00,CLR,,0.00,WeatherDisplay:10.37,2013-02-28 07:00:00,
2013-02-28 02:05:00,53.1,48.7,29.92,WNW,301,1.0,3.0,85,0.00,CLR,,0.00,WeatherDisplay:10.37,2013-02-28 07:05:00,
2013-02-28 02:10:00,53.1,48.7,29.92,NW,316,1.0,5.0,85,0.00,CLR,,0.00,WeatherDisplay:10.37,2013-02-28 07:10:00,
2013-02-28 02:20:00,53.2,48.8,29.91,NW,306,0.0,3.0,85,0.00,CLR,,0.00,WeatherDisplay:10.37,2013-02-28 07:20:00,
2013-02-28 02:25:00,53.1,48.7,29.91,NW,305,0.0,2.0,85,0.00,CLR,,0.00,WeatherDisplay:10.37,2013-02-28 07:25:00,
2013-02-28 02:30:00,52.9,48.5,29.92,NW,305,0.0,1.0,85,0.00,CLR,,0.00,WeatherDisplay:10.37,2013-02-28 07:30:00,
2013-02-28 02:35:00,52.8,48.7,29.92,NW,305,0.0,3.0,86,0.00,CLR,,0.00,WeatherDisplay:10.37,2013-02-28 07:35:00,
2013-02-28 02:40:00,52.6,48.6,29.91,NW,305,0.0,3.0,86,0.00,CLR,,0.00,WeatherDisplay:10.37,2013-02-28 07:40:00,
2013-02-28 02:45:00,52.6,48.5,29.91,NW,305,0.0,2.0,86,0.00,CLR,,0.00,WeatherDisplay:10.37,2013-02-28 07:45:00,
2013-02-28 02:50:00,52.4,48.3,29.91,NW,305,0.0,0.0,86,0.00,CLR,,0.00,WeatherDisplay:10.37,2013-02-28 07:50:00,
2013-02-28 02:55:00,52.2,48.2,29.91,NW,305,0.0,2.0,86,0.00,CLR,,0.00,WeatherDisplay:10.37,2013-02-28 07:55:00,
2013-02-28 03:00:00,52.0,47.9,29.91,NW,305,0.0,1.0,86,0.00,CLR,,0.00,WeatherDisplay:10.37,2013-02-28 08:00:00,
2013-02-28 03:05:00,51.8,47.7,29.90,NW,305,0.0,2.0,86,0.00,CLR,,0.00,WeatherDisplay:10.37,2013-02-28 08:05:00,
2013-02-28 03:10:00,51.7,48.0,29.90,NW,305,0.0,1.0,87,0.00,CLR,,0.00,WeatherDisplay:10.37,2013-02-28 08:10:00,
2013-02-28 03:15:00,51.6,47.9,29.90,NW,305,0.0,0.0,87,0.00,CLR,,0.00,WeatherDisplay:10.37,2013-02-28 08:15:00,
2013-02-28 03:20:00,51.4,48.0,29.91,NW,305,0.0,0.0,88,0.00,CLR,,0.00,WeatherDisplay:10.37,2013-02-28 08:20:00,
2013-02-28 03:25:00,51.2,47.8,29.90,NW,305,0.0,0.0,88,0.00,CLR,,0.00,WeatherDisplay:10.37,2013-02-28 08:25:00,
2013-02-28 03:30:00,51.1,47.6,29.90,NW,305,0.0,0.0,88,0.00,CLR,,0.00,WeatherDisplay:10.37,2013-02-28 08:30:00,
2013-02-28 03:35:00,50.9,47.5,29.90,NW,305,0.0,0.0,88,0.00,CLR,,0.00,WeatherDisplay:10.37,2013-02-28 08:35:00,
2013-02-28 03:40:00,50.6,47.2,29.91,NW,305,0.0,0.0,88,0.00,CLR,,0.00,WeatherDisplay:10.37,2013-02-28 08:40:00,
2013-02-28 03:45:00,50.3,46.9,29.91,NW,305,0.0,0.0,88,0.00,CLR,,0.00,WeatherDisplay:10.37,2013-02-28 08:45:00,
2013-02-28 03:50:00,50.1,46.7,29.91,NW,305,0.0,0.0,88,0.00,CLR,,0.00,WeatherDisplay:10.37,2013-02-28 08:50:00,
2013-02-28 03:55:00,50.0,47.2,29.90,NW,305,0.0,1.0,90,0.00,CLR,,0.00,WeatherDisplay:10.37,2013-02-28 08:55:00,
2013-02-28 04:00:00,50.0,47.2,29.90,NW,305,0.0,1.0,90,0.00,CLR,,0.00,WeatherDisplay:10.37,2013-02-28 09:00:00,
2013-02-28 04:05:00,49.9,47.1,29.90,NW,305,0.0,0.0,90,0.00,CLR,,0.00,WeatherDisplay:10.37,2013-02-28 09:05:00,
2013-02-28 04:10:00,49.7,46.9,29.90,NW,305,0.0,1.0,90,0.00,CLR,,0.00,WeatherDisplay:10.37,2013-02-28 09:10:00,
2013-02-28 04:15:00,49.6,46.8,29.90,NW,305,0.0,0.0,90,0.00,CLR,,0.00,WeatherDisplay:10.37,2013-02-28 09:15:00,
2013-02-28 04:20:00,49.5,47.0,29.90,NW,305,0.0,1.0,91,0.00,CLR,,0.00,WeatherDisplay:10.37,2013-02-28 09:20:00,
2013-02-28 04:25:00,49.3,46.5,29.90,NW,305,0.0,0.0,90,0.00,CLR,,0.00,WeatherDisplay:10.37,2013-02-28 09:25:00,
2013-02-28 04:30:00,49.1,46.6,29.90,NW,305,0.0,0.0,91,0.00,CLR,,0.00,WeatherDisplay:10.37,2013-02-28 09:30:00,
2013-02-28 04:40:00,49.0,46.8,29.90,NW,305,0.0,0.0,92,0.00,CLR,,0.00,WeatherDisplay:10.37,2013-02-28 09:40:00,
2013-02-28 04:45:00,49.0,46.8,29.90,NW,305,0.0,0.0,92,0.00,CLR,,0.00,WeatherDisplay:10.37,2013-02-28 09:45:00,
2013-02-28 04:50:00,49.0,46.8,29.91,NW,305,0.0,2.0,92,0.00,CLR,,0.00,WeatherDisplay:10.37,2013-02-28 09:50:00,
2013-02-28 05:00:00,48.9,46.6,29.91,NW,305,0.0,0.0,92,0.00,CLR,,0.00,WeatherDisplay:10.37,2013-02-28 10:00:00,
2013-02-28 05:05:00,48.7,46.5,29.91,NW,305,0.0,0.0,92,0.00,CLR,,0.00,WeatherDisplay:10.37,2013-02-28 10:05:00,
2013-02-28 05:10:00,48.7,46.8,29.91,NW,305,0.0,0.0,93,0.00,CLR,,0.00,WeatherDisplay:10.37,2013-02-28 10:10:00,
2013-02-28 05:15:00,48.7,46.8,29.91,NW,305,0.0,0.0,93,0.00,CLR,,0.00,WeatherDisplay:10.37,2013-02-28 10:15:00,
2013-02-28 05:20:00,48.6,46.6,29.91,NW,305,0.0,0.0,93,0.00,CLR,,0.00,WeatherDisplay:10.37,2013-02-28 10:20:00,
2013-02-28 05:25:00,48.4,46.5,29.91,NW,305,0.0,0.0,93,0.00,CLR,,0.00,WeatherDisplay:10.37,2013-02-28 10:25:00,
2013-02-28 05:30:00,48.2,46.0,29.92,NW,305,0.0,0.0,92,0.00,CLR,,0.00,WeatherDisplay:10.37,2013-02-28 10:30:00,
2013-02-28 05:35:00,48.0,45.8,29.92,NW,305,0.0,0.0,92,0.00,CLR,,0.00,WeatherDisplay:10.37,2013-02-28 10:35:00,
2013-02-28 05:40:00,47.8,45.6,29.92,NW,305,0.0,0.0,92,0.00,CLR,,0.00,WeatherDisplay:10.37,2013-02-28 10:40:00,
2013-02-28 05:45:00,47.6,45.4,29.92,NW,305,0.0,0.0,92,0.00,CLR,,0.00,WeatherDisplay:10.37,2013-02-28 10:45:00,
2013-02-28 05:50:00,47.5,45.3,29.92,NW,305,0.0,0.0,92,0.00,CLR,,0.00,WeatherDisplay:10.37,2013-02-28 10:50:00,
2013-02-28 05:55:00,47.3,45.1,29.92,NW,305,0.0,0.0,92,0.00,CLR,,0.00,WeatherDisplay:10.37,2013-02-28 10:55:00,
2013-02-28 06:00:00,47.0,44.8,29.92,NW,305,0.0,0.0,92,0.00,CLR,,0.00,WeatherDisplay:10.37,2013-02-28 11:00:00,
2013-02-28 06:05:00,46.7,44.5,29.92,NW,305,0.0,0.0,92,0.00,CLR,,0.00,WeatherDisplay:10.37,2013-02-28 11:05:00,
2013-02-28 06:10:00,46.7,44.7,29.92,NW,305,0.0,0.0,93,0.00,CLR,,0.00,WeatherDisplay:10.37,2013-02-28 11:10:00,
2013-02-28 06:15:00,46.7,45.1,29.93,NW,305,0.0,0.0,94,0.00,CLR,,0.00,WeatherDisplay:10.37,2013-02-28 11:15:00,
2013-02-28 06:20:00,46.6,44.7,29.93,NW,305,0.0,0.0,93,0.00,CLR,,0.00,WeatherDisplay:10.37,2013-02-28 11:20:00,
2013-02-28 06:25:00,46.5,44.6,29.93,NW,305,0.0,0.0,93,0.00,CLR,,0.00,WeatherDisplay:10.37,2013-02-28 11:25:00,
2013-02-28 06:30:00,46.5,44.9,29.93,NW,305,0.0,0.0,94,0.00,CLR,,0.00,WeatherDisplay:10.37,2013-02-28 11:30:00,
2013-02-28 06:40:00,46.8,45.1,29.93,NW,305,0.0,1.0,94,0.00,CLR,,0.00,WeatherDisplay:10.37,2013-02-28 11:40:00,
2013-02-28 06:45:00,47.0,45.6,29.93,NW,305,0.0,0.0,95,0.00,CLR,,0.00,WeatherDisplay:10.37,2013-02-28 11:45:00,
2013-02-28 06:50:00,47.0,45.4,29.94,NW,305,0.0,0.0,94,0.00,CLR,,0.00,WeatherDisplay:10.37,2013-02-28 11:50:00,
2013-02-28 06:55:00,46.9,45.3,29.94,NW,305,0.0,0.0,94,0.00,CLR,,0.00,WeatherDisplay:10.37,2013-02-28 11:55:00,
2013-02-28 07:00:00,46.9,45.3,29.94,NW,305,0.0,0.0,94,0.00,CLR,,0.00,WeatherDisplay:10.37,2013-02-28 12:00:00,
2013-02-28 07:05:00,47.0,45.3,29.94,NW,305,0.0,0.0,94,0.00,CLR,,0.00,WeatherDisplay:10.37,2013-02-28 12:05:00,
2013-02-28 07:10:00,47.0,45.4,29.94,NW,305,0.0,0.0,94,0.00,CLR,,0.00,WeatherDisplay:10.37,2013-02-28 12:10:00,
2013-02-28 07:15:00,47.0,45.4,29.94,NW,319,0.0,0.0,94,0.00,CLR,,0.00,WeatherDisplay:10.37,2013-02-28 12:15:00,
2013-02-28 07:20:00,46.9,45.3,29.94,NE,39,0.0,0.0,94,0.00,CLR,,0.00,WeatherDisplay:10.37,2013-02-28 12:20:00,
2013-02-28 07:25:00,47.0,45.4,29.95,ENE,66,0.0,0.0,94,0.00,CLR,,0.00,WeatherDisplay:10.37,2013-02-28 12:25:00,
2013-02-28 07:30:00,47.0,45.4,29.95,NE,55,0.0,0.0,94,0.00,CLR,,0.00,WeatherDisplay:10.37,2013-02-28 12:30:00,
2013-02-28 07:35:00,47.0,45.4,29.95,NNW,337,0.0,0.0,94,0.00,CLR,,0.00,WeatherDisplay:10.37,2013-02-28 12:35:00,
2013-02-28 07:40:00,47.2,45.8,29.96,WNW,290,0.0,0.0,95,0.00,CLR,,0.00,WeatherDisplay:10.37,2013-02-28 12:40:00,
2013-02-28 07:45:00,47.7,46.4,29.96,SW,222,0.0,0.0,95,0.00,CLR,,0.00,WeatherDisplay:10.37,2013-02-28 12:45:00,
2013-02-28 07:50:00,48.4,47.3,29.96,SSE,156,0.0,0.0,96,0.00,CLR,,0.00,WeatherDisplay:10.37,2013-02-28 12:50:00,
2013-02-28 07:55:00,49.1,48.0,29.96,SSW,200,0.0,0.0,96,0.00,CLR,,0.00,WeatherDisplay:10.37,2013-02-28 12:55:00,
2013-02-28 08:00:00,49.8,48.7,29.96,SW,233,0.0,0.0,96,0.00,CLR,,0.00,WeatherDisplay:10.37,2013-02-28 13:00:00,
2013-02-28 08:05:00,50.5,49.4,29.96,WSW,237,0.0,0.0,96,0.00,CLR,,0.00,WeatherDisplay:10.37,2013-02-28 13:05:00,
2013-02-28 08:10:00,51.1,50.0,29.96,West,273,0.0,0.0,96,0.00,CLR,,0.00,WeatherDisplay:10.37,2013-02-28 13:10:00,
2013-02-28 08:15:00,52.0,51.1,29.96,WNW,286,0.0,1.0,97,0.00,CLR,,0.00,WeatherDisplay:10.37,2013-02-28 13:15:00,
2013-02-28 08:20:00,52.7,51.6,29.96,WNW,286,0.0,2.0,96,0.00,CLR,,0.00,WeatherDisplay:10.37,2013-02-28 13:20:00,
2013-02-28 08:25:00,53.5,51.8,29.97,WNW,286,0.0,2.0,94,0.00,CLR,,0.00,WeatherDisplay:10.37,2013-02-28 13:25:00,
2013-02-28 08:30:00,54.2,52.0,29.97,WNW,282,2.0,4.0,92,0.00,CLR,,0.00,WeatherDisplay:10.37,2013-02-28 13:30:00,
2013-02-28 08:35:00,55.1,52.2,29.97,NW,304,2.0,5.0,90,0.00,CLR,,0.00,WeatherDisplay:10.37,2013-02-28 13:35:00,
2013-02-28 08:45:00,56.9,52.7,29.97,NW,309,2.0,5.0,86,0.00,CLR,,0.00,WeatherDisplay:10.37,2013-02-28 13:45:00,
2013-02-28 08:50:00,57.7,52.9,29.97,WNW,303,2.0,7.0,84,0.00,CLR,,0.00,WeatherDisplay:10.37,2013-02-28 13:50:00,
2013-02-28 09:00:00,58.9,53.4,29.97,NW,307,1.0,4.0,82,0.00,CLR,,0.00,WeatherDisplay:10.37,2013-02-28 14:00:00,
2013-02-28 09:05:00,59.3,52.8,29.97,NW,310,6.0,10.0,79,0.00,CLR,,0.00,WeatherDisplay:10.37,2013-02-28 14:05:00,
2013-02-28 09:10:00,59.7,53.6,29.97,NW,306,1.0,6.0,80,0.00,CLR,,0.00,WeatherDisplay:10.37,2013-02-28 14:10:00,
2013-02-28 09:20:00,61.1,54.1,29.97,NW,319,0.0,5.0,78,0.00,CLR,,0.00,WeatherDisplay:10.37,2013-02-28 14:20:00,
2013-02-28 09:25:00,61.4,53.4,29.97,NW,321,3.0,8.0,75,0.00,CLR,,0.00,WeatherDisplay:10.37,2013-02-28 14:25:00,
2013-02-28 09:30:00,61.6,53.2,29.97,NW,310,6.0,12.0,74,0.00,CLR,,0.00,WeatherDisplay:10.37,2013-02-28 14:30:00,
2013-02-28 09:35:00,61.8,53.4,29.97,NW,312,6.0,12.0,74,0.00,CLR,,0.00,WeatherDisplay:10.37,2013-02-28 14:35:00,
2013-02-28 09:40:00,62.0,53.6,29.97,NW,318,3.0,8.0,74,0.00,CLR,,0.00,WeatherDisplay:10.37,2013-02-28 14:40:00,
2013-02-28 09:45:00,62.5,54.5,29.97,NW,307,2.0,7.0,75,0.00,CLR,,0.00,WeatherDisplay:10.37,2013-02-28 14:45:00,
2013-02-28 09:50:00,63.3,54.5,29.97,NW,309,2.0,8.0,73,0.00,CLR,,0.00,WeatherDisplay:10.37,2013-02-28 14:50:00,
2013-02-28 09:55:00,63.6,54.4,29.97,NW,312,3.0,8.0,72,0.00,CLR,,0.00,WeatherDisplay:10.37,2013-02-28 14:55:00,
2013-02-28 10:00:00,63.9,54.3,29.97,NW,305,5.0,12.0,71,0.00,CLR,,0.00,WeatherDisplay:10.37,2013-02-28 15:00:00,
2013-02-28 10:05:00,63.6,54.0,29.97,NW,313,3.0,13.0,71,0.00,CLR,,0.00,WeatherDisplay:10.37,2013-02-28 15:05:00,
2013-02-28 10:10:00,63.6,54.0,29.97,NW,320,3.0,12.0,71,0.00,CLR,,0.00,WeatherDisplay:10.37,2013-02-28 15:10:00,
2013-02-28 10:15:00,64.0,54.0,29.97,NW,322,6.0,12.0,70,0.00,CLR,,0.00,WeatherDisplay:10.37,2013-02-28 15:15:00,
2013-02-28 10:20:00,64.2,53.8,29.97,NNW,329,2.0,12.0,69,0.00,CLR,,0.00,WeatherDisplay:10.37,2013-02-28 15:20:00,
2013-02-28 10:25:00,64.9,54.0,29.96,NW,323,5.0,10.0,68,0.00,CLR,,0.00,WeatherDisplay:10.37,2013-02-28 15:25:00,
2013-02-28 10:30:00,64.8,53.6,29.97,NW,309,6.0,12.0,67,0.00,CLR,,0.00,WeatherDisplay:10.37,2013-02-28 15:30:00,
2013-02-28 10:35:00,65.2,53.5,29.97,NW,307,5.0,12.0,66,0.00,CLR,,0.00,WeatherDisplay:10.37,2013-02-28 15:35:00,
2013-02-28 10:45:00,65.1,53.9,29.96,NW,317,2.0,8.0,67,0.00,CLR,,0.00,WeatherDisplay:10.37,2013-02-28 15:45:00,
2013-02-28 10:55:00,65.1,53.1,29.96,WNW,298,2.0,7.0,65,0.00,CLR,,0.00,WeatherDisplay:10.37,2013-02-28 15:55:00,
2013-02-28 11:05:00,66.5,52.2,29.96,WNW,302,5.0,12.0,60,0.00,CLR,,0.00,WeatherDisplay:10.37,2013-02-28 16:05:00,
2013-02-28 11:15:00,65.8,52.4,29.95,WNW,298,1.0,9.0,62,0.00,CLR,,0.00,WeatherDisplay:10.37,2013-02-28 16:15:00,
2013-02-28 11:20:00,66.5,52.6,29.95,NW,304,6.0,12.0,61,0.00,CLR,,0.00,WeatherDisplay:10.37,2013-02-28 16:20:00,
2013-02-28 11:25:00,65.9,52.5,29.96,NW,316,2.0,12.0,62,0.00,CLR,,0.00,WeatherDisplay:10.37,2013-02-28 16:25:00,
2013-02-28 11:35:00,67.2,53.7,29.95,NW,305,3.0,7.0,62,0.00,CLR,,0.00,WeatherDisplay:10.37,2013-02-28 16:35:00,
2013-02-28 11:45:00,67.7,54.2,29.95,NW,306,0.0,8.0,62,0.00,CLR,,0.00,WeatherDisplay:10.37,2013-02-28 16:45:00,
2013-02-28 11:55:00,68.1,51.3,29.94,WNW,299,5.0,12.0,55,0.00,CLR,,0.00,WeatherDisplay:10.37,2013-02-28 16:55:00,
2013-02-28 12:00:00,68.3,51.5,29.94,WNW,300,3.0,8.0,55,0.00,CLR,,0.00,WeatherDisplay:10.37,2013-02-28 17:00:00,
2013-02-28 12:05:00,68.0,51.2,29.94,WNW,303,5.0,12.0,55,0.00,CLR,,0.00,WeatherDisplay:10.37,2013-02-28 17:05:00,
2013-02-28 12:15:00,67.8,52.0,29.93,WNW,296,6.0,13.0,57,0.00,CLR,,0.00,WeatherDisplay:10.37,2013-02-28 17:15:00,
2013-02-28 12:20:00,68.1,52.8,29.93,WNW,296,5.0,12.0,58,0.00,CLR,,0.00,WeatherDisplay:10.37,2013-02-28 17:20:00,
2013-02-28 12:30:00,69.9,54.0,29.92,WSW,241,2.0,7.0,57,0.00,CLR,,0.00,WeatherDisplay:10.37,2013-02-28 17:30:00,
2013-02-28 12:35:00,70.0,54.0,29.92,West,268,1.0,8.0,57,0.00,CLR,,0.00,WeatherDisplay:10.37,2013-02-28 17:35:00,
2013-02-28 12:45:00,70.4,54.4,29.92,WNW,299,3.0,12.0,57,0.00,CLR,,0.00,WeatherDisplay:10.37,2013-02-28 17:45:00,
2013-02-28 12:55:00,70.6,54.6,29.91,WNW,299,3.0,8.0,57,0.00,CLR,,0.00,WeatherDisplay:10.37,2013-02-28 17:55:00,
2013-02-28 13:00:00,70.5,55.0,29.91,WNW,292,2.0,10.0,58,0.00,CLR,,0.00,WeatherDisplay:10.37,2013-02-28 18:00:00,
2013-02-28 13:05:00,70.7,54.7,29.90,WNW,287,7.0,13.0,57,0.00,CLR,,0.00,WeatherDisplay:10.37,2013-02-28 18:05:00,
2013-02-28 13:10:00,70.2,54.7,29.90,WNW,288,3.0,13.0,58,0.00,CLR,,0.00,WeatherDisplay:10.37,2013-02-28 18:10:00,
2013-02-28 13:15:00,69.6,54.2,29.90,NW,304,5.0,9.0,58,0.00,CLR,,0.00,WeatherDisplay:10.37,2013-02-28 18:15:00,
2013-02-28 13:20:00,69.4,54.0,29.89,NW,309,2.0,7.0,58,0.00,CLR,,0.00,WeatherDisplay:10.37,2013-02-28 18:20:00,
2013-02-28 13:30:00,70.4,55.4,29.89,NW,305,5.0,9.0,59,0.00,CLR,,0.00,WeatherDisplay:10.37,2013-02-28 18:30:00,
2013-02-28 13:35:00,70.2,54.7,29.89,NW,304,2.0,7.0,58,0.00,CLR,,0.00,WeatherDisplay:10.37,2013-02-28 18:35:00,
2013-02-28 13:45:00,70.8,54.3,29.88,WNW,301,6.0,14.0,56,0.00,CLR,,0.00,WeatherDisplay:10.37,2013-02-28 18:45:00,
2013-02-28 13:50:00,71.1,54.1,29.88,NW,304,5.0,10.0,55,0.00,CLR,,0.00,WeatherDisplay:10.37,2013-02-28 18:50:00,
2013-02-28 13:55:00,71.0,54.0,29.87,WNW,301,7.0,12.0,55,0.00,CLR,,0.00,WeatherDisplay:10.37,2013-02-28 18:55:00,
2013-02-28 14:05:00,71.6,54.6,29.87,West,272,5.0,12.0,55,0.00,CLR,,0.00,WeatherDisplay:10.37,2013-02-28 19:05:00,
2013-02-28 14:10:00,72.2,55.1,29.87,West,281,2.0,12.0,55,0.00,CLR,,0.00,WeatherDisplay:10.37,2013-02-28 19:10:00,
2013-02-28 14:15:00,72.3,55.7,29.87,West,272,1.0,7.0,56,0.00,CLR,,0.00,WeatherDisplay:10.37,2013-02-28 19:15:00,
2013-02-28 14:20:00,72.8,55.2,29.87,WNW,287,6.0,12.0,54,0.00,CLR,,0.00,WeatherDisplay:10.37,2013-02-28 19:20:00,
2013-02-28 14:25:00,72.6,54.5,29.87,WNW,299,1.0,10.0,53,0.00,CLR,,0.00,WeatherDisplay:10.37,2013-02-28 19:25:00,
2013-02-28 14:35:00,72.3,54.7,29.86,West,276,3.0,12.0,54,0.00,CLR,,0.00,WeatherDisplay:10.37,2013-02-28 19:35:00,
2013-02-28 14:45:00,72.8,54.2,29.86,WNW,286,0.0,12.0,52,0.00,CLR,,0.00,WeatherDisplay:10.37,2013-02-28 19:45:00,
2013-02-28 14:50:00,72.2,54.6,29.86,West,280,2.0,7.0,54,0.00,CLR,,0.00,WeatherDisplay:10.37,2013-02-28 19:50:00,
2013-02-28 14:55:00,72.3,53.7,29.86,WNW,296,5.0,12.0,52,0.00,CLR,,0.00,WeatherDisplay:10.37,2013-02-28 19:55:00,
2013-02-28 15:00:00,72.5,53.4,29.85,WNW,301,3.0,16.0,51,0.00,CLR,,0.00,WeatherDisplay:10.37,2013-02-28 20:00:00,
2013-02-28 15:05:00,72.9,52.6,29.85,WNW,282,6.0,10.0,49,0.00,CLR,,0.00,WeatherDisplay:10.37,2013-02-28 20:05:00,
2013-02-28 15:10:00,73.3,51.8,29.85,West,277,3.0,8.0,47,0.00,CLR,,0.00,WeatherDisplay:10.37,2013-02-28 20:10:00,
2013-02-28 15:20:00,73.6,51.0,29.84,WNW,292,6.0,12.0,45,0.00,CLR,,0.00,WeatherDisplay:10.37,2013-02-28 20:20:00,
2013-02-28 15:25:00,73.7,51.6,29.84,NW,306,2.0,10.0,46,0.00,CLR,,0.00,WeatherDisplay:10.37,2013-02-28 20:25:00,
2013-02-28 15:30:00,73.7,50.4,29.84,WNW,296,7.0,20.0,44,0.00,CLR,,0.00,WeatherDisplay:10.37,2013-02-28 20:30:00,
2013-02-28 15:35:00,73.9,51.8,29.84,WNW,287,3.0,12.0,46,0.00,CLR,,0.00,WeatherDisplay:10.37,2013-02-28 20:35:00,
2013-02-28 15:40:00,73.8,50.5,29.84,WNW,289,8.0,14.0,44,0.00,CLR,,0.00,WeatherDisplay:10.37,2013-02-28 20:40:00,
2013-02-28 15:45:00,73.7,51.0,29.84,WNW,284,1.0,12.0,45,0.00,CLR,,0.00,WeatherDisplay:10.37,2013-02-28 20:45:00,
2013-02-28 15:50:00,73.6,50.3,29.84,WNW,283,6.0,13.0,44,0.00,CLR,,0.00,WeatherDisplay:10.37,2013-02-28 20:50:00,
2013-02-28 15:55:00,73.4,50.2,29.84,WNW,289,2.0,13.0,44,0.00,CLR,,0.00,WeatherDisplay:10.37,2013-02-28 20:55:00,
2013-02-28 16:05:00,73.0,49.2,29.84,WNW,285,7.0,15.0,43,0.00,CLR,,0.00,WeatherDisplay:10.37,2013-02-28 21:05:00,
2013-02-28 16:10:00,72.8,49.6,29.83,WNW,287,3.0,9.0,44,0.00,CLR,,0.00,WeatherDisplay:10.37,2013-02-28 21:10:00,
2013-02-28 16:20:00,72.8,49.0,29.84,NW,304,2.0,12.0,43,0.00,CLR,,0.00,WeatherDisplay:10.37,2013-02-28 21:20:00,
2013-02-28 16:25:00,72.6,48.8,29.83,WNW,292,2.0,15.0,43,0.00,CLR,,0.00,WeatherDisplay:10.37,2013-02-28 21:25:00,
2013-02-28 16:30:00,72.1,47.7,29.83,WNW,294,8.0,15.0,42,0.00,CLR,,0.00,WeatherDisplay:10.37,2013-02-28 21:30:00,
2013-02-28 16:35:00,71.9,47.6,29.83,WNW,303,6.0,15.0,42,0.00,CLR,,0.00,WeatherDisplay:10.37,2013-02-28 21:35:00,
2013-02-28 16:40:00,71.7,47.4,29.83,WNW,302,7.0,14.0,42,0.00,CLR,,0.00,WeatherDisplay:10.37,2013-02-28 21:40:00,
2013-02-28 16:45:00,71.6,48.5,29.83,WNW,294,6.0,10.0,44,0.00,CLR,,0.00,WeatherDisplay:10.37,2013-02-28 21:45:00,
2013-02-28 16:50:00,71.5,47.8,29.83,WNW,300,6.0,15.0,43,0.00,CLR,,0.00,WeatherDisplay:10.37,2013-02-28 21:50:00,
2013-02-28 16:55:00,71.1,47.5,29.84,NW,307,7.0,15.0,43,0.00,CLR,,0.00,WeatherDisplay:10.37,2013-02-28 21:55:00,
2013-02-28 17:05:00,70.9,47.3,29.84,WNW,299,5.0,12.0,43,0.00,CLR,,0.00,WeatherDisplay:10.37,2013-02-28 22:05:00,
2013-02-28 17:10:00,70.7,47.7,29.84,NW,307,2.0,13.0,44,0.00,CLR,,0.00,WeatherDisplay:10.37,2013-02-28 22:10:00,
2013-02-28 17:20:00,70.3,47.3,29.84,WNW,303,3.0,13.0,44,0.00,CLR,,0.00,WeatherDisplay:10.37,2013-02-28 22:20:00,
2013-02-28 17:25:00,69.8,46.9,29.84,WNW,302,8.0,12.0,44,0.00,CLR,,0.00,WeatherDisplay:10.37,2013-02-28 22:25:00,
2013-02-28 17:35:00,69.1,46.9,29.85,NW,313,6.0,10.0,45,0.00,CLR,,0.00,WeatherDisplay:10.37,2013-02-28 22:35:00,
2013-02-28 17:40:00,68.9,46.7,29.85,NW,314,6.0,13.0,45,0.00,CLR,,0.00,WeatherDisplay:10.37,2013-02-28 22:40:00,
2013-02-28 17:45:00,68.7,47.1,29.85,NW,308,5.0,12.0,46,0.00,CLR,,0.00,WeatherDisplay:10.37,2013-02-28 22:45:00,
2013-02-28 17:50:00,68.4,46.8,29.85,WNW,303,6.0,12.0,46,0.00,CLR,,0.00,WeatherDisplay:10.37,2013-02-28 22:50:00,
2013-02-28 18:00:00,67.9,46.3,29.86,NW,306,6.0,13.0,46,0.00,CLR,,0.00,WeatherDisplay:10.37,2013-02-28 23:00:00,
2013-02-28 18:10:00,67.3,47.5,29.87,NW,309,3.0,9.0,49,0.00,CLR,,0.00,WeatherDisplay:10.37,2013-02-28 23:10:00,
2013-02-28 18:15:00,66.9,47.1,29.87,WNW,303,3.0,9.0,49,0.00,CLR,,0.00,WeatherDisplay:10.37,2013-02-28 23:15:00,
2013-02-28 18:20:00,66.5,47.3,29.87,NW,304,2.0,9.0,50,0.00,CLR,,0.00,WeatherDisplay:10.37,2013-02-28 23:20:00,
2013-02-28 18:25:00,66.2,47.5,29.87,WNW,300,3.0,10.0,51,0.00,CLR,,0.00,WeatherDisplay:10.37,2013-02-28 23:25:00,
2013-02-28 18:35:00,65.6,47.5,29.87,NW,305,1.0,9.0,52,0.00,CLR,,0.00,WeatherDisplay:10.37,2013-02-28 23:35:00,
2013-02-28 18:40:00,65.4,47.3,29.87,NW,308,5.0,13.0,52,0.00,CLR,,0.00,WeatherDisplay:10.37,2013-02-28 23:40:00,
2013-02-28 18:50:00,64.9,47.8,29.87,NW,308,2.0,10.0,54,0.00,CLR,,0.00,WeatherDisplay:10.37,2013-02-28 23:50:00,
2013-02-28 18:55:00,64.6,47.6,29.87,NW,307,1.0,9.0,54,0.00,CLR,,0.00,WeatherDisplay:10.37,2013-02-28 23:55:00,
2013-02-28 19:00:00,64.4,47.8,29.87,WNW,303,1.0,7.0,55,0.00,CLR,,0.00,WeatherDisplay:10.37,2013-03-01 00:00:00,
2013-02-28 19:10:00,63.8,47.8,29.88,WNW,291,3.0,7.0,56,0.00,CLR,,0.00,WeatherDisplay:10.37,2013-03-01 00:10:00,
2013-02-28 19:15:00,63.7,48.2,29.88,WNW,301,2.0,5.0,57,0.00,CLR,,0.00,WeatherDisplay:10.37,2013-03-01 00:15:00,
2013-02-28 19:25:00,63.4,48.8,29.89,NW,305,5.0,9.0,59,0.00,CLR,,0.00,WeatherDisplay:10.37,2013-03-01 00:25:00,
2013-02-28 19:30:00,63.2,49.1,29.89,NW,307,1.0,9.0,60,0.00,CLR,,0.00,WeatherDisplay:10.37,2013-03-01 00:30:00,
2013-02-28 19:40:00,62.8,49.1,29.89,WNW,297,3.0,8.0,61,0.00,CLR,,0.00,WeatherDisplay:10.37,2013-03-01 00:40:00,
2013-02-28 19:45:00,62.6,49.4,29.89,NW,306,3.0,12.0,62,0.00,CLR,,0.00,WeatherDisplay:10.37,2013-03-01 00:45:00,
2013-02-28 19:50:00,62.5,49.7,29.89,NW,304,3.0,8.0,63,0.00,CLR,,0.00,WeatherDisplay:10.37,2013-03-01 00:50:00,
2013-02-28 19:55:00,62.2,49.4,29.89,WNW,299,2.0,9.0,63,0.00,CLR,,0.00,WeatherDisplay:10.37,2013-03-01 00:55:00,
2013-02-28 20:00:00,62.0,49.6,29.89,WNW,302,1.0,8.0,64,0.00,CLR,,0.00,WeatherDisplay:10.37,2013-03-01 01:00:00,
2013-02-28 20:05:00,61.7,49.8,29.89,WNW,302,1.0,8.0,65,0.00,CLR,,0.00,WeatherDisplay:10.37,2013-03-01 01:05:00,
2013-02-28 20:10:00,61.5,49.6,29.89,WNW,301,1.0,4.0,65,0.00,CLR,,0.00,WeatherDisplay:10.37,2013-03-01 01:10:00,
2013-02-28 20:15:00,61.3,49.8,29.89,WNW,295,0.0,5.0,66,0.00,CLR,,0.00,WeatherDisplay:10.37,2013-03-01 01:15:00,
2013-02-28 20:20:00,61.0,50.0,29.89,WNW,294,0.0,4.0,67,0.00,CLR,,0.00,WeatherDisplay:10.37,2013-03-01 01:20:00,
2013-02-28 20:25:00,60.7,49.7,29.89,WNW,296,2.0,5.0,67,0.00,CLR,,0.00,WeatherDisplay:10.37,2013-03-01 01:25:00,
2013-02-28 20:30:00,60.6,49.6,29.89,WNW,289,0.0,8.0,67,0.00,CLR,,0.00,WeatherDisplay:10.37,2013-03-01 01:30:00,
2013-02-28 20:35:00,60.4,49.8,29.89,WNW,289,0.0,3.0,68,0.00,CLR,,0.00,WeatherDisplay:10.37,2013-03-01 01:35:00,
2013-02-28 20:40:00,60.2,49.2,29.89,WNW,288,2.0,6.0,67,0.00,CLR,,0.00,WeatherDisplay:10.37,2013-03-01 01:40:00,
2013-02-28 20:45:00,60.2,49.2,29.89,WNW,297,0.0,5.0,67,0.00,CLR,,0.00,WeatherDisplay:10.37,2013-03-01 01:45:00,
2013-02-28 20:50:00,60.0,49.0,29.89,WNW,297,0.0,3.0,67,0.00,CLR,,0.00,WeatherDisplay:10.37,2013-03-01 01:50:00,
2013-02-28 20:55:00,59.8,48.8,29.89,West,279,0.0,5.0,67,0.00,CLR,,0.00,WeatherDisplay:10.37,2013-03-01 01:55:00,
2013-02-28 21:00:00,59.7,48.7,29.89,WNW,283,0.0,3.0,67,0.00,CLR,,0.00,WeatherDisplay:10.37,2013-03-01 02:00:00,
2013-02-28 21:05:00,59.7,48.7,29.90,WNW,299,3.0,13.0,67,0.00,CLR,,0.00,WeatherDisplay:10.37,2013-03-01 02:05:00,
2013-02-28 21:10:00,59.8,48.0,29.90,NW,304,5.0,12.0,65,0.00,CLR,,0.00,WeatherDisplay:10.37,2013-03-01 02:10:00,
2013-02-28 21:15:00,59.7,47.9,29.90,WNW,297,5.0,9.0,65,0.00,CLR,,0.00,WeatherDisplay:10.37,2013-03-01 02:15:00,
2013-02-28 21:20:00,59.5,47.7,29.90,WNW,293,3.0,9.0,65,0.00,CLR,,0.00,WeatherDisplay:10.37,2013-03-01 02:20:00,
2013-02-28 21:25:00,59.1,47.4,29.90,WNW,299,1.0,6.0,65,0.00,CLR,,0.00,WeatherDisplay:10.37,2013-03-01 02:25:00,
2013-02-28 21:30:00,58.8,47.5,29.90,WNW,300,0.0,8.0,66,0.00,CLR,,0.00,WeatherDisplay:10.37,2013-03-01 02:30:00,
2013-02-28 21:35:00,58.6,47.7,29.90,WNW,303,1.0,7.0,67,0.00,CLR,,0.00,WeatherDisplay:10.37,2013-03-01 02:35:00,
2013-02-28 21:40:00,58.3,47.3,29.91,WNW,301,2.0,12.0,67,0.00,CLR,,0.00,WeatherDisplay:10.37,2013-03-01 02:40:00,
2013-02-28 21:45:00,58.2,47.3,29.91,WNW,295,2.0,13.0,67,0.00,CLR,,0.00,WeatherDisplay:10.37,2013-03-01 02:45:00,
2013-02-28 21:50:00,58.1,47.2,29.91,WNW,296,6.0,13.0,67,0.00,CLR,,0.00,WeatherDisplay:10.37,2013-03-01 02:50:00,
2013-02-28 21:55:00,58.0,47.1,29.91,WNW,294,2.0,13.0,67,0.00,CLR,,0.00,WeatherDisplay:10.37,2013-03-01 02:55:00,
2013-02-28 22:00:00,57.8,47.3,29.91,WNW,297,2.0,8.0,68,0.00,CLR,,0.00,WeatherDisplay:10.37,2013-03-01 03:00:00,
2013-02-28 22:05:00,57.6,47.1,29.91,WNW,296,5.0,12.0,68,0.00,CLR,,0.00,WeatherDisplay:10.37,2013-03-01 03:05:00,
2013-02-28 22:10:00,57.6,47.5,29.91,WNW,300,5.0,10.0,69,0.00,CLR,,0.00,WeatherDisplay:10.37,2013-03-01 03:10:00,
2013-02-28 22:15:00,57.5,47.4,29.91,WNW,300,1.0,5.0,69,0.00,CLR,,0.00,WeatherDisplay:10.37,2013-03-01 03:15:00,
2013-02-28 22:20:00,57.3,47.6,29.91,NW,306,2.0,8.0,70,0.00,CLR,,0.00,WeatherDisplay:10.37,2013-03-01 03:20:00,
2013-02-28 22:25:00,57.2,47.5,29.91,NW,306,2.0,12.0,70,0.00,CLR,,0.00,WeatherDisplay:10.37,2013-03-01 03:25:00,
2013-02-28 22:30:00,57.1,47.8,29.91,WNW,302,2.0,8.0,71,0.00,CLR,,0.00,WeatherDisplay:10.37,2013-03-01 03:30:00,
2013-02-28 22:35:00,57.0,47.7,29.91,WNW,297,3.0,12.0,71,0.00,CLR,,0.00,WeatherDisplay:10.37,2013-03-01 03:35:00,
2013-02-28 22:40:00,56.9,47.6,29.91,WNW,302,3.0,9.0,71,0.00,CLR,,0.00,WeatherDisplay:10.37,2013-03-01 03:40:00,
2013-02-28 22:45:00,56.9,47.9,29.91,NW,306,2.0,7.0,72,0.00,CLR,,0.00,WeatherDisplay:10.37,2013-03-01 03:45:00,
2013-02-28 22:50:00,56.7,47.8,29.91,WNW,300,1.0,6.0,72,0.00,CLR,,0.00,WeatherDisplay:10.37,2013-03-01 03:50:00,
2013-02-28 22:55:00,56.6,47.7,29.92,WNW,300,1.0,5.0,72,0.00,CLR,,0.00,WeatherDisplay:10.37,2013-03-01 03:55:00,
2013-02-28 23:00:00,56.5,47.6,29.91,WNW,291,1.0,6.0,72,0.00,CLR,,0.00,WeatherDisplay:10.37,2013-03-01 04:00:00,
2013-02-28 23:05:00,56.4,47.9,29.92,WNW,297,1.0,6.0,73,0.00,CLR,,0.00,WeatherDisplay:10.37,2013-03-01 04:05:00,
2013-02-28 23:10:00,56.3,47.8,29.91,WNW,303,2.0,4.0,73,0.00,CLR,,0.00,WeatherDisplay:10.37,2013-03-01 04:10:00,
2013-02-28 23:15:00,56.1,47.6,29.91,NW,306,0.0,6.0,73,0.00,CLR,,0.00,WeatherDisplay:10.37,2013-03-01 04:15:00,
2013-02-28 23:20:00,56.1,47.9,29.91,WNW,302,0.0,4.0,74,0.00,CLR,,0.00,WeatherDisplay:10.37,2013-03-01 04:20:00,
2013-02-28 23:25:00,56.0,47.8,29.91,WNW,301,0.0,3.0,74,0.00,CLR,,0.00,WeatherDisplay:10.37,2013-03-01 04:25:00,
2013-02-28 23:30:00,56.0,47.8,29.92,WNW,298,2.0,7.0,74,0.00,CLR,,0.00,WeatherDisplay:10.37,2013-03-01 04:30:00,
2013-02-28 23:35:00,55.9,47.8,29.91,WNW,294,0.0,7.0,74,0.00,CLR,,0.00,WeatherDisplay:10.37,2013-03-01 04:35:00,
2013-02-28 23:40:00,55.8,48.0,29.91,WNW,294,0.0,5.0,75,0.00,CLR,,0.00,WeatherDisplay:10.37,2013-03-01 04:40:00,
2013-02-28 23:45:00,55.7,47.9,29.91,NW,305,1.0,7.0,75,0.00,CLR,,0.00,WeatherDisplay:10.37,2013-03-01 04:45:00,
2013-02-28 23:50:00,55.6,47.8,29.91,NW,308,0.0,4.0,75,0.00,CLR,,0.00,WeatherDisplay:10.37,2013-03-01 04:50:00,
2013-02-28 23:55:00,55.5,47.7,29.91,NW,306,0.0,2.0,75,0.00,CLR,,0.00,WeatherDisplay:10.37,2013-03-01 04:55:00,